| Date | Time | Temp. (oF) | Dew Point (oF) | Rel. Hum. (%) | Press. (in.) | Wind Dir. | Wind Speed (mph) | Hourly Rainfall (in.) |
|
|---|---|---|---|---|---|---|---|---|---|
| 1 | 02/28 | 00:00 | 25 | 13 | 60 | 29.84 | W | 7 | 0.00 |
| 2 | 02/27 | 23:00 | 26 | 12 | 57 | 29.83 | SW | 13 | 0.00 |
| 3 | 02/27 | 22:00 | 26 | 12 | 55 | 29.83 | SSW | 9 | 0.00 |
| 4 | 02/27 | 21:00 | 26 | 11 | 54 | 29.82 | SW | 8 | 0.00 |
| 5 | 02/27 | 20:00 | 27 | 11 | 51 | 29.80 | W | 12 | 0.00 |
| 6 | 02/27 | 19:00 | 28 | 12 | 51 | 29.77 | S | 11 | 0.00 |
| 7 | 02/27 | 18:00 | 29 | 12 | 49 | 29.73 | W | 13 | 0.00 |
| 8 | 02/27 | 17:00 | 30 | 11 | 46 | 29.69 | W | 11 | 0.00 |
| 9 | 02/27 | 16:00 | 32 | 12 | 45 | 29.66 | W | 4 | 0.00 |
| 10 | 02/27 | 15:00 | 34 | 16 | 48 | 29.66 | W | 12 | 0.00 |
| 11 | 02/27 | 14:00 | 35 | 14 | 43 | 29.67 | WNW | 16 | 0.00 |
| 12 | 02/27 | 13:00 | 35 | 15 | 45 | 29.69 | WNW | 15 | 0.00 |
| 13 | 02/27 | 12:00 | 35 | 16 | 47 | 29.71 | WSW | 8 | 0.00 |
| 14 | 02/27 | 11:00 | 33 | 14 | 46 | 29.73 | W | 7 | 0.00 |
| 15 | 02/27 | 10:00 | 32 | 18 | 57 | 29.74 | WNW | 9 | 0.00 |
| 16 | 02/27 | 09:00 | 30 | 18 | 63 | 29.76 | WNW | 14 | 0.00 |
| 17 | 02/27 | 08:00 | 30 | 20 | 66 | 29.76 | NW | 9 | 0.00 |
| 18 | 02/27 | 07:00 | 32 | 23 | 71 | 29.75 | NNW | 10 | 0.00 |
| 19 | 02/27 | 06:00 | 33 | 23 | 68 | 29.73 | WNW | 9 | 0.00 |
| 20 | 02/27 | 05:00 | 34 | 25 | 71 | 29.72 | WNW | 10 | 0.00 |
| 21 | 02/27 | 04:00 | 36 | 24 | 63 | 29.72 | W | 10 | 0.00 |
| 22 | 02/27 | 03:00 | 38 | 27 | 66 | 29.72 | SW | 3 | 0.00 |
| 23 | 02/27 | 02:00 | 39 | 32 | 77 | 29.72 | SW | 2 | 0.00 |
| 24 | 02/27 | 01:00 | 39 | 34 | 85 | 29.70 | W | 1 | 0.00 |